LIPY/AOI METAR and TAF weather

Enter ICAO airport designator
Station Type Date Time Source
LIPY METAR 2020/01/18 14:50 UTC NOAA

LIPY 181450Z 32010KT 5000 -RA FEW010 SCT030 BKN050 07/06 Q1020 RERA


Station Type Date Time Source
LIPY Decoded METAR 2020/01/18 14:50 UTC NOAA

Falconara, Italy (LIPY) 43-37N 013-22E 10M
Jan 18, 2020 - 09:50 AM EST / 2020.01.18 1450 UTC
Wind: from the NW (320 degrees) at 12 MPH (10 KT):0
Visibility: 3 mile(s):0
Sky conditions: mostly cloudy
Weather: light rain
Temperature: 44 F (7 C)
Dew Point: 42 F (6 C)
Relative Humidity: 93%
Pressure (altimeter): 30.12 in. Hg (1020 hPa)
ob: LIPY 181450Z 32010KT 5000 -RA FEW010 SCT030 BKN050 07/06 Q1020 RERA
cycle: 15

Station Type Date Time Source
LIPY TAF 2020/01/18 12:21 UTC NOAA

TAF LIPY 181100Z 1812/1912 32012KT 9999 BKN040
TEMPO 1812/1906 4000 RA
BECMG 1819/1821 03010KT
BECMG 1908/1910 03015G25KT

Example: see airport list